Time;durP1;ratioP1;P1;durP2;ratioP2;P2;SDS_P1;SDS_P2;PMS_P1;PMS_P2;Temp;Humidity;BMP_temperature;BMP_pressure;BME280_temperature;BME280_humidity;BME280_pressure;Samples;Min_cycle;Max_cycle;Signal;HPM_P1;HPM_P2
2023/04/29 00:00:05;;;;;;;12.75;10.23;;;;;;;13.31;90.81;100832.06;5055863;28;20508;-66
2023/04/29 00:02:31;;;;;;;12.13;9.80;;;;;;;13.31;90.86;100834.66;5059454;28;20027;-66
2023/04/29 00:04:57;;;;;;;11.48;9.52;;;;;;;13.30;90.58;100828.59;5065089;28;20390;-65
2023/04/29 00:07:22;;;;;;;14.40;10.27;;;;;;;13.31;90.00;100834.66;5061814;28;20115;-65
2023/04/29 00:09:48;;;;;;;14.73;10.75;;;;;;;13.30;89.78;100838.13;5065074;28;20127;-65
2023/04/29 00:12:13;;;;;;;16.45;10.95;;;;;;;13.29;89.26;100831.25;5061046;28;20035;-66
2023/04/29 00:14:39;;;;;;;14.90;9.90;;;;;;;13.27;89.48;100841.66;5061034;28;20096;-66
2023/04/29 00:17:04;;;;;;;15.25;10.27;;;;;;;13.27;88.81;100836.44;5059510;28;20047;-66
2023/04/29 00:19:30;;;;;;;14.07;10.98;;;;;;;13.27;88.25;100838.19;5058506;28;20040;-66
2023/04/29 00:21:55;;;;;;;15.70;11.05;;;;;;;13.25;87.84;100834.78;5057240;28;20041;-65
2023/04/29 00:24:21;;;;;;;16.95;11.05;;;;;;;13.23;87.54;100847.78;5066450;28;20036;-67
2023/04/29 00:26:46;;;;;;;15.77;12.65;;;;;;;13.23;86.95;100845.19;5065655;28;20033;-67
2023/04/29 00:29:11;;;;;;;17.83;11.38;;;;;;;13.23;86.57;100845.19;5065207;28;20081;-66
2023/04/29 00:31:37;;;;;;;17.75;13.30;;;;;;;13.21;86.55;100849.53;5061569;28;20516;-66
2023/04/29 00:34:02;;;;;;;21.48;13.52;;;;;;;13.20;86.46;100853.03;5067258;28;21264;-66
2023/04/29 00:36:28;;;;;;;20.20;13.02;;;;;;;13.20;86.42;100847.84;5068425;28;20036;-66
2023/04/29 00:38:53;;;;;;;17.65;13.27;;;;;;;13.20;86.77;100857.38;5059263;28;20159;-66
2023/04/29 00:41:19;;;;;;;19.27;13.57;;;;;;;13.18;86.65;100861.75;5065396;28;20474;-65
2023/04/29 00:43:45;;;;;;;22.20;13.68;;;;;;;13.17;86.29;100863.47;5062978;28;20667;-66
2023/04/29 00:46:10;;;;;;;20.15;13.45;;;;;;;13.15;85.37;100867.81;5061817;28;20067;-66
2023/04/29 00:48:36;;;;;;;21.33;13.70;;;;;;;13.15;84.32;100862.63;5067510;28;20540;-65
2023/04/29 00:51:04;;;;;;;16.42;11.77;;;;;;;13.13;84.20;100866.13;5063399;28;20029;-65
2023/04/29 00:53:30;;;;;;;18.38;12.15;;;;;;;13.11;83.98;100867.91;5063140;28;20417;-66
2023/04/29 00:55:56;;;;;;;19.33;12.15;;;;;;;13.06;83.60;100867.97;5060638;28;20472;-66
2023/04/29 00:58:22;;;;;;;20.33;13.25;;;;;;;13.06;83.39;100880.13;5064653;28;20033;-66
2023/04/29 01:00:48;;;;;;;22.13;13.75;;;;;;;13.01;82.65;100869.78;5060252;28;20132;-66
2023/04/29 01:03:14;;;;;;;19.50;13.80;;;;;;;12.97;82.33;100871.53;5062328;28;20131;-66
2023/04/29 01:05:40;;;;;;;22.45;14.55;;;;;;;12.96;82.81;100881.97;5064968;28;20383;-65
2023/04/29 01:08:36;;;;;;;24.15;15.02;;;;;;;12.92;81.98;100872.50;5062366;28;20064;-65
2023/04/29 01:11:10;;;;;;;19.83;13.05;;;;;;;12.87;81.95;100872.59;5064541;28;20036;-65
2023/04/29 01:13:45;;;;;;;22.63;13.48;;;;;;;12.86;82.42;100881.25;5067295;28;20046;-65
2023/04/29 01:16:19;;;;;;;23.52;14.10;;;;;;;12.84;82.58;100892.53;5063730;28;20501;-65
2023/04/29 01:18:56;;;;;;;25.55;14.15;;;;;;;12.82;81.75;100884.75;5064602;28;20041;-66
2023/04/29 01:21:24;;;;;;;20.85;12.90;;;;;;;12.80;81.62;100878.75;5070233;28;20111;-65
2023/04/29 01:23:55;;;;;;;21.55;13.73;;;;;;;12.77;80.76;100878.78;5067916;28;20099;-66
2023/04/29 01:26:23;;;;;;;20.20;13.05;;;;;;;12.78;80.93;100890.03;5066609;28;20055;-65
2023/04/29 01:28:58;;;;;;;18.48;11.70;;;;;;;12.75;80.41;100884.88;5049774;28;20029;-66
2023/04/29 01:31:27;;;;;;;;;;;;;;;12.71;79.31;100888.41;5061855;28;20098;-65
2023/04/29 01:34:01;;;;;;;16.67;10.45;;;;;;;12.72;78.78;100887.53;5064301;28;19917;-66
2023/04/29 01:37:05;;;;;;;14.68;9.95;;;;;;;12.70;78.49;100890.13;5063549;28;20037;-66
2023/04/29 01:39:40;;;;;;;17.27;8.98;;;;;;;12.72;77.24;100890.13;4984953;28;20067;-66
2023/04/29 01:42:35;;;;;;;12.95;8.18;;;;;;;12.71;76.22;100889.25;4982639;28;20096;-64
2023/04/29 01:45:05;;;;;;;17.10;9.13;;;;;;;12.73;76.29;100894.44;5043094;28;20508;-66
2023/04/29 01:47:31;;;;;;;13.18;8.27;;;;;;;12.71;76.22;100893.59;5064503;28;20372;-66
2023/04/29 01:49:57;;;;;;;13.07;8.68;;;;;;;12.71;76.48;100893.59;5065741;28;20028;-65
2023/04/29 01:52:22;;;;;;;15.10;9.65;;;;;;;12.70;77.17;100902.28;5061705;28;20037;-65
2023/04/29 01:54:48;;;;;;;15.15;10.35;;;;;;;12.67;77.22;100892.78;5059382;28;20047;-65
2023/04/29 01:57:13;;;;;;;18.63;10.60;;;;;;;12.66;77.71;100900.59;5062349;28;20054;-65
2023/04/29 01:59:39;;;;;;;17.85;11.45;;;;;;;12.64;78.18;100898.03;5063992;28;20078;-66
2023/04/29 02:02:04;;;;;;;17.02;11.30;;;;;;;12.64;78.76;100907.53;5037884;28;20080;-66
2023/04/29 02:04:32;;;;;;;22.20;12.35;;;;;;;12.65;78.75;100901.47;5058328;28;20037;-65
2023/04/29 02:06:58;;;;;;;22.30;13.45;;;;;;;12.61;79.03;100903.25;5067425;28;20040;-65
2023/04/29 02:09:23;;;;;;;21.33;13.65;;;;;;;12.59;79.41;100910.19;5063303;28;20628;-66
2023/04/29 02:11:48;;;;;;;22.85;14.43;;;;;;;12.57;79.35;100908.50;5058511;28;20190;-66
2023/04/29 02:14:14;;;;;;;25.73;14.75;;;;;;;12.54;79.67;100914.59;5039272;28;20477;-65
2023/04/29 02:16:42;;;;;;;25.90;15.93;;;;;;;12.51;79.68;100922.41;5049533;28;20032;-66
2023/04/29 02:19:08;;;;;;;24.02;15.40;;;;;;;12.48;80.22;100917.25;5046151;28;20513;-66
2023/04/29 02:21:34;;;;;;;28.98;17.40;;;;;;;12.43;80.43;100919.91;5050278;28;20545;-67
2023/04/29 02:23:59;;;;;;;30.40;17.27;;;;;;;12.41;80.39;100931.19;5050118;28;20757;-66
2023/04/29 02:26:24;;;;;;;30.20;18.02;;;;;;;12.40;80.93;100929.47;5049116;28;20036;-67
2023/04/29 02:28:51;;;;;;;30.98;18.38;;;;;;;12.37;80.96;100932.13;5059327;28;20029;-66
2023/04/29 02:31:16;;;;;;;32.33;18.10;;;;;;;12.34;81.48;100933.00;5054003;28;20039;-66
2023/04/29 02:33:42;;;;;;;31.42;18.35;;;;;;;12.31;81.59;100933.06;5041890;28;20153;-66
2023/04/29 02:36:08;;;;;;;35.60;19.95;;;;;;;12.29;81.33;100931.34;5043614;28;20040;-66
2023/04/29 02:38:33;;;;;;;36.28;19.88;;;;;;;12.26;81.40;100928.78;5046323;28;20040;-66
2023/04/29 02:40:58;;;;;;;33.08;19.13;;;;;;;12.25;81.79;100932.28;5022321;28;20124;-66
2023/04/29 02:43:24;;;;;;;35.10;21.13;;;;;;;12.21;81.88;100944.41;5040857;28;20044;-67
2023/04/29 02:45:49;;;;;;;32.42;19.27;;;;;;;12.21;82.06;100946.13;5042036;28;20556;-66
2023/04/29 02:48:15;;;;;;;36.00;20.33;;;;;;;12.17;81.96;100945.31;5038989;28;20026;-67
2023/04/29 02:50:40;;;;;;;32.35;19.38;;;;;;;12.16;82.16;100947.94;5049634;28;20082;-66
2023/04/29 02:53:06;;;;;;;35.22;20.55;;;;;;;12.14;82.87;100950.53;5050485;28;20494;-65
2023/04/29 02:55:31;;;;;;;33.10;19.65;;;;;;;12.12;82.98;100947.09;5064603;28;20497;-66
2023/04/29 02:57:57;;;;;;;38.40;21.35;;;;;;;12.11;82.45;100947.97;5046459;28;20542;-67
2023/04/29 03:00:23;;;;;;;37.67;21.27;;;;;;;12.11;82.95;100954.91;5045848;28;20039;-66
2023/04/29 03:02:48;;;;;;;36.97;22.00;;;;;;;12.09;83.06;100954.91;5043388;28;20044;-67
2023/04/29 03:05:14;;;;;;;38.72;22.15;;;;;;;12.08;83.09;100958.38;5043318;28;20375;-65
2023/04/29 03:07:39;;;;;;;35.83;22.13;;;;;;;12.05;82.92;100952.38;5048384;28;20029;-67
2023/04/29 03:10:06;;;;;;;36.72;22.00;;;;;;;12.03;83.22;100954.97;5045294;28;20025;-65
2023/04/29 03:12:31;;;;;;;36.30;21.40;;;;;;;12.01;83.43;100954.16;5049825;28;20083;-67
2023/04/29 03:14:56;;;;;;;37.78;21.17;;;;;;;12.00;83.63;100956.72;5048918;28;20025;-65
2023/04/29 03:17:22;;;;;;;39.53;22.25;;;;;;;11.99;83.53;100955.03;5048561;28;20478;-65
2023/04/29 03:19:47;;;;;;;40.22;22.30;;;;;;;11.94;83.18;100957.66;5049672;28;20072;-67
2023/04/29 03:22:13;;;;;;;40.20;24.75;;;;;;;11.90;83.73;100954.25;5050385;28;20128;-66
2023/04/29 03:24:38;;;;;;;37.47;21.83;;;;;;;11.88;83.86;100960.31;5049867;28;20035;-66
2023/04/29 03:27:04;;;;;;;42.88;24.35;;;;;;;11.86;83.82;100960.34;5039077;28;20041;-66
2023/04/29 03:29:30;;;;;;;42.65;24.38;;;;;;;11.86;83.66;100962.09;5045319;28;20100;-67
2023/04/29 03:31:56;;;;;;;41.58;24.38;;;;;;;11.87;83.99;100967.22;5046820;28;20112;-66
2023/04/29 03:34:22;;;;;;;40.92;23.45;;;;;;;11.87;83.95;100963.81;5046548;28;20095;-67
2023/04/29 03:36:47;;;;;;;42.13;23.85;;;;;;;11.85;83.62;100963.81;5035906;28;20068;-66
2023/04/29 03:39:13;;;;;;;42.97;24.38;;;;;;;11.84;83.51;100964.66;5048458;28;20057;-67
2023/04/29 03:41:38;;;;;;;45.38;25.45;;;;;;;11.82;84.02;100966.44;5046233;28;20029;-66
2023/04/29 03:44:04;;;;;;;47.47;26.77;;;;;;;11.80;83.81;100963.00;5043907;28;20060;-65
2023/04/29 03:46:30;;;;;;;51.05;26.80;;;;;;;11.75;84.49;100967.34;5042199;28;20457;-67
2023/04/29 03:48:56;;;;;;;50.47;26.23;;;;;;;11.72;85.05;100966.53;5025040;28;20116;-65
2023/04/29 03:51:23;;;;;;;52.85;27.50;;;;;;;11.67;85.55;100965.72;5046607;28;20071;-66
2023/04/29 03:53:48;;;;;;;49.60;27.52;;;;;;;11.64;86.10;100966.59;5046461;28;20676;-65
2023/04/29 03:56:14;;;;;;;53.80;29.92;;;;;;;11.57;86.98;100971.88;5045228;28;20045;-65
2023/04/29 03:58:39;;;;;;;54.95;30.70;;;;;;;11.52;87.18;100976.22;5048393;28;20123;-66
2023/04/29 04:01:04;;;;;;;58.25;30.67;;;;;;;11.45;88.06;100979.75;5043094;28;20037;-66
2023/04/29 04:03:30;;;;;;;56.90;31.08;;;;;;;11.38;89.45;100976.31;5042442;28;20121;-66
2023/04/29 04:05:55;;;;;;;64.13;33.83;;;;;;;11.33;90.68;100978.94;5027025;28;20998;-66
2023/04/29 04:08:20;;;;;;;68.82;34.55;;;;;;;11.30;90.93;100983.28;5066367;28;20022;-65
2023/04/29 04:10:46;;;;;;;61.15;33.67;;;;;;;11.25;91.54;100985.88;5052435;28;20041;-66
2023/04/29 04:13:11;;;;;;;68.70;35.20;;;;;;;11.20;91.73;100984.22;5045062;28;20078;-66
2023/04/29 04:15:37;;;;;;;72.22;37.25;;;;;;;11.15;92.10;100996.31;5047557;28;20061;-66
2023/04/29 04:18:02;;;;;;;79.68;38.97;;;;;;;11.11;92.85;100997.22;5053420;28;20097;-66
2023/04/29 04:20:28;;;;;;;80.95;38.03;;;;;;;11.05;94.40;100999.84;5034853;28;20040;-67
2023/04/29 04:22:53;;;;;;;86.25;39.17;;;;;;;10.98;94.29;101004.19;5056718;28;20040;-66
2023/04/29 04:25:19;;;;;;;84.53;38.95;;;;;;;10.93;95.22;100998.19;5050998;28;20745;-65
2023/04/29 04:27:44;;;;;;;89.75;42.03;;;;;;;10.85;95.99;101002.56;5047186;28;20085;-66
2023/04/29 04:30:10;;;;;;;101.22;44.60;;;;;;;10.80;96.43;101002.56;5044092;28;20501;-66
2023/04/29 04:32:37;;;;;;;105.82;45.40;;;;;;;10.81;97.04;101008.59;5040824;28;20067;-66
2023/04/29 04:35:03;;;;;;;103.47;47.05;;;;;;;10.73;97.82;101010.38;5046441;28;20040;-67
2023/04/29 04:37:28;;;;;;;105.25;47.85;;;;;;;10.67;98.07;101021.59;5050928;28;20033;-66
2023/04/29 04:39:53;;;;;;;120.43;50.08;;;;;;;10.66;98.40;101022.47;5053483;28;20489;-67
2023/04/29 04:42:19;;;;;;;119.07;50.67;;;;;;;10.63;98.94;101032.81;5042230;28;20491;-66
2023/04/29 04:44:44;;;;;;;124.38;50.40;;;;;;;10.62;98.84;101041.44;5046827;28;20386;-66
2023/04/29 04:47:10;;;;;;;123.78;50.38;;;;;;;10.62;99.65;101036.25;5029909;28;20068;-67
2023/04/29 04:49:36;;;;;;;102.18;40.05;;;;;;;10.57;99.53;101042.31;5049476;28;20033;-67
2023/04/29 04:52:01;;;;;;;90.32;36.38;;;;;;;10.51;99.69;101050.09;5048475;28;20440;-67
2023/04/29 04:54:27;;;;;;;95.22;36.55;;;;;;;10.42;99.85;101048.41;5034318;28;20091;-69
2023/04/29 04:56:52;;;;;;;87.35;35.03;;;;;;;10.40;99.67;101055.31;5044593;28;20045;-67
2023/04/29 04:59:18;;;;;;;93.60;34.85;;;;;;;10.35;99.41;101051.03;5046549;28;20033;-67
2023/04/29 05:01:43;;;;;;;91.57;34.92;;;;;;;10.33;99.54;101057.94;5042593;28;20043;-67
2023/04/29 05:04:09;;;;;;;91.82;35.50;;;;;;;10.29;99.63;101062.25;5051033;28;20041;-67
2023/04/29 05:06:34;;;;;;;93.00;36.20;;;;;;;10.30;98.79;101071.69;5055063;28;20048;-67
2023/04/29 05:08:59;;;;;;;84.68;33.72;;;;;;;10.28;99.63;101067.41;5049928;28;20109;-66
2023/04/29 05:11:25;;;;;;;91.05;35.42;;;;;;;10.26;99.69;101071.72;5046578;22;20056;-65
2023/04/29 05:13:50;;;;;;;86.97;36.38;;;;;;;10.28;99.84;101076.00;5038814;28;20501;-64
2023/04/29 05:16:16;;;;;;;96.95;37.20;;;;;;;10.27;99.58;101084.63;5051064;28;20044;-65
2023/04/29 05:18:44;;;;;;;87.85;37.58;;;;;;;10.28;99.90;101091.50;5059950;28;20050;-65
2023/04/29 05:21:10;;;;;;;98.85;39.00;;;;;;;10.28;99.33;101091.50;5051754;28;20632;-65
2023/04/29 05:23:35;;;;;;;94.32;38.08;;;;;;;10.32;99.32;101100.13;5060555;28;20081;-66
2023/04/29 05:26:00;;;;;;;95.57;37.90;;;;;;;10.32;100.00;101097.53;5056954;28;20717;-66
2023/04/29 05:28:26;;;;;;;92.57;37.78;;;;;;;10.31;99.52;101094.09;5050014;28;20041;-65
2023/04/29 05:30:51;;;;;;;85.10;33.30;;;;;;;10.29;99.87;101101.00;5039697;28;20040;-64
2023/04/29 05:33:16;;;;;;;86.15;34.28;;;;;;;10.29;100.00;101102.72;5059218;28;20075;-65
2023/04/29 05:35:42;;;;;;;74.60;33.13;;;;;;;10.29;99.77;101103.56;5058333;28;20060;-65
2023/04/29 05:38:07;;;;;;;72.55;31.30;;;;;;;10.28;99.62;101109.59;5055423;28;20035;-65
2023/04/29 05:40:33;;;;;;;70.85;29.40;;;;;;;10.29;99.42;101110.47;5056855;28;20036;-65
2023/04/29 05:42:58;;;;;;;67.25;28.55;;;;;;;10.32;99.10;101123.38;5055347;28;20502;-65
2023/04/29 05:45:24;;;;;;;61.17;27.15;;;;;;;10.32;98.96;101120.78;5055697;28;20048;-65
2023/04/29 05:47:49;;;;;;;50.78;24.25;;;;;;;10.28;97.67;101119.06;5040593;28;20051;-65
2023/04/29 05:50:15;;;;;;;47.80;22.15;;;;;;;10.30;98.30;101128.53;5058548;28;20086;-66
2023/04/29 05:52:40;;;;;;;43.58;21.05;;;;;;;10.33;97.96;101125.13;5055474;28;20047;-67
2023/04/29 05:55:06;;;;;;;41.38;18.75;;;;;;;10.32;96.95;101133.72;5056328;28;20044;-65
2023/04/29 05:57:31;;;;;;;42.03;19.25;;;;;;;10.33;96.77;101131.09;5057187;28;20037;-64
2023/04/29 05:59:58;;;;;;;42.03;20.25;;;;;;;10.36;96.43;101135.41;5058078;28;20028;-65
2023/04/29 06:02:24;;;;;;;53.75;23.23;;;;;;;10.43;97.03;101140.59;5054049;28;20037;-65
2023/04/29 06:04:50;;;;;;;65.20;30.17;;;;;;;10.45;97.07;101149.19;5056919;28;20046;-66
2023/04/29 06:07:16;;;;;;;68.60;30.92;;;;;;;10.43;97.93;101143.16;5043008;28;20037;-65
2023/04/29 06:09:42;;;;;;;57.22;28.30;;;;;;;10.44;97.31;101150.06;5060217;28;20792;-64
2023/04/29 06:12:07;;;;;;;57.20;26.65;;;;;;;10.45;97.83;101156.94;5059658;28;20076;-65
2023/04/29 06:14:33;;;;;;;49.78;24.20;;;;;;;10.42;96.94;101154.34;5055731;28;20117;-64
2023/04/29 06:16:58;;;;;;;51.90;24.83;;;;;;;10.43;96.85;101168.16;5056185;28;20123;-65
2023/04/29 06:19:24;;;;;;;52.30;23.77;;;;;;;10.43;96.62;101163.84;5060613;28;20043;-65
2023/04/29 06:21:49;;;;;;;46.63;23.20;;;;;;;10.44;96.09;101170.75;5060571;28;20681;-64
2023/04/29 06:24:15;;;;;;;52.55;25.02;;;;;;;10.50;96.80;101175.91;5053788;28;20048;-64
2023/04/29 06:26:40;;;;;;;40.22;21.83;;;;;;;10.52;96.27;101175.88;5059112;28;20115;-65
2023/04/29 06:29:06;;;;;;;41.42;22.67;;;;;;;10.54;95.27;101181.91;5051216;28;20136;-65
2023/04/29 06:31:31;;;;;;;37.78;19.05;;;;;;;10.53;95.35;101183.66;5046945;28;20143;-66
2023/04/29 06:33:56;;;;;;;36.97;19.90;;;;;;;10.53;94.90;101181.06;5058925;28;20044;-65
2023/04/29 06:36:22;;;;;;;36.75;19.88;;;;;;;10.54;95.00;101181.91;5059998;28;20159;-65
2023/04/29 06:38:47;;;;;;;34.15;17.92;;;;;;;10.55;94.73;101194.84;5049559;28;20049;-65
2023/04/29 06:41:12;;;;;;;31.90;17.55;;;;;;;10.57;95.19;101190.50;5040395;28;20064;-65
2023/04/29 06:43:38;;;;;;;39.88;19.50;;;;;;;10.58;93.98;101194.84;5029617;28;20162;-66
2023/04/29 06:46:04;;;;;;;30.02;16.23;;;;;;;10.59;94.04;101191.41;5031248;28;20033;-65
2023/04/29 06:48:32;;;;;;;31.05;16.83;;;;;;;10.62;93.55;101196.53;5039120;28;20033;-64
2023/04/29 06:50:58;;;;;;;28.95;16.35;;;;;;;10.64;93.93;101201.72;5040387;28;20033;-65
2023/04/29 06:53:24;;;;;;;28.23;16.00;;;;;;;10.67;93.47;101201.72;5041011;28;20053;-65
2023/04/29 06:55:49;;;;;;;31.63;17.08;;;;;;;10.65;92.73;101200.88;5064087;28;20128;-66
2023/04/29 06:58:16;;;;;;;26.08;15.35;;;;;;;10.67;92.22;101209.47;5043765;28;20045;-65
2023/04/29 07:00:46;;;;;;;26.77;15.52;;;;;;;10.68;91.67;101208.63;5042365;28;20140;-66
2023/04/29 07:03:12;;;;;;;24.38;13.40;;;;;;;10.72;90.85;101205.13;5045499;28;20702;-65
2023/04/29 07:05:44;;;;;;;25.27;14.00;;;;;;;10.78;91.43;101216.34;5036178;28;20516;-65
2023/04/29 07:08:11;;;;;;;22.20;13.65;;;;;;;10.83;90.64;101221.50;5023756;28;20050;-65
2023/04/29 07:10:37;;;;;;;24.48;14.55;;;;;;;10.89;90.08;101228.41;5036970;28;20367;-65
2023/04/29 07:13:02;;;;;;;24.58;14.98;;;;;;;10.92;90.79;101225.81;5015920;28;20048;-65
2023/04/29 07:15:29;;;;;;;24.90;14.05;;;;;;;10.91;90.04;101232.69;5029392;28;20935;-65
2023/04/29 07:17:55;;;;;;;24.23;14.43;;;;;;;10.95;89.71;101238.72;5034914;28;20131;-64
2023/04/29 07:20:20;;;;;;;23.08;14.38;;;;;;;10.95;90.29;101239.56;5034630;28;20104;-65
2023/04/29 07:22:46;;;;;;;22.20;13.43;;;;;;;11.01;89.94;101238.72;5037174;28;20037;-65
2023/04/29 07:25:11;;;;;;;24.77;15.18;;;;;;;11.04;89.56;101246.47;5040112;28;20041;-64
2023/04/29 07:27:37;;;;;;;27.25;14.02;;;;;;;11.03;90.03;101248.19;5036174;28;20376;-64
2023/04/29 07:30:04;;;;;;;25.30;14.02;;;;;;;11.01;89.22;101251.66;5038733;28;20377;-64
2023/04/29 07:32:32;;;;;;;23.02;14.50;;;;;;;11.02;88.79;101255.94;5036496;28;20040;-65
2023/04/29 07:34:58;;;;;;;24.85;14.50;;;;;;;11.08;89.07;101258.50;5033735;28;20053;-65
2023/04/29 07:37:24;;;;;;;29.92;17.23;;;;;;;11.09;88.64;101261.09;5038920;28;20056;-65
2023/04/29 07:39:50;;;;;;;26.25;16.23;;;;;;;11.13;88.59;101260.22;5029791;28;20037;-65
2023/04/29 07:42:15;;;;;;;27.90;16.42;;;;;;;11.17;88.40;101261.94;5031648;28;20048;-65
2023/04/29 07:44:40;;;;;;;27.77;17.13;;;;;;;11.20;87.47;101256.75;5031694;28;20543;-65
2023/04/29 07:47:06;;;;;;;25.10;16.23;;;;;;;11.22;87.83;101256.72;5058328;28;20566;-65
2023/04/29 07:49:31;;;;;;;25.08;14.95;;;;;;;11.26;87.40;101254.16;5034701;28;20091;-65
2023/04/29 07:51:57;;;;;;;29.08;16.42;;;;;;;11.28;87.26;101261.88;5038393;28;20090;-65
2023/04/29 07:54:22;;;;;;;24.15;14.45;;;;;;;11.40;87.11;101260.97;5032954;28;20094;-65
2023/04/29 07:56:48;;;;;;;24.05;15.40;;;;;;;11.59;86.93;101266.13;5036367;28;20489;-65
2023/04/29 07:59:13;;;;;;;23.33;14.48;;;;;;;11.80;86.63;101263.44;5038733;28;20063;-65
2023/04/29 08:01:42;;;;;;;23.65;13.70;;;;;;;11.95;83.94;101259.91;5036664;28;20025;-65
2023/04/29 08:04:07;;;;;;;21.40;14.07;;;;;;;12.11;82.41;101263.25;5040415;28;20044;-65
2023/04/29 08:06:33;;;;;;;22.30;14.10;;;;;;;12.24;81.56;101259.69;5039697;28;20037;-65
2023/04/29 08:08:59;;;;;;;21.15;13.48;;;;;;;12.36;80.72;101259.59;5038887;28;20152;-64
2023/04/29 08:11:25;;;;;;;21.70;14.07;;;;;;;12.52;80.53;101273.31;5036428;28;20052;-64
2023/04/29 08:13:51;;;;;;;19.63;13.27;;;;;;;12.59;79.39;101262.84;5033882;28;20079;-65
2023/04/29 08:16:17;;;;;;;25.95;14.82;;;;;;;12.65;79.41;101262.81;5034548;28;20033;-65
2023/04/29 08:18:43;;;;;;;20.85;13.10;;;;;;;12.66;79.14;101268.84;5039140;28;20041;-65
2023/04/29 08:21:10;;;;;;;23.70;14.23;;;;;;;12.79;79.00;101265.28;5035435;28;20045;-64
2023/04/29 08:23:37;;;;;;;24.83;14.57;;;;;;;12.88;78.00;101270.41;5040418;28;20119;-65
2023/04/29 08:26:02;;;;;;;24.05;14.00;;;;;;;12.69;77.73;101271.44;5036101;28;20120;-65
2023/04/29 08:28:28;;;;;;;24.98;15.25;;;;;;;12.57;79.38;101285.34;5034137;28;20037;-64
2023/04/29 08:30:54;;;;;;;23.15;13.80;;;;;;;12.59;79.44;101291.38;5033521;28;20052;-65
2023/04/29 08:33:19;;;;;;;24.35;14.20;;;;;;;12.73;77.87;101280.91;5036053;28;20051;-65
2023/04/29 08:35:45;;;;;;;20.50;13.50;;;;;;;12.72;77.30;101274.00;5035031;28;20418;-65
2023/04/29 08:38:10;;;;;;;26.27;15.00;;;;;;;12.73;78.94;101293.88;5032163;28;20078;-65
2023/04/29 08:40:40;;;;;;;23.25;14.77;;;;;;;12.58;77.65;101286.22;5034063;28;20259;-65
2023/04/29 08:43:08;;;;;;;21.75;14.18;;;;;;;12.41;77.77;101292.38;5034799;28;20405;-65
2023/04/29 08:45:34;;;;;;;23.92;15.73;;;;;;;12.26;79.55;101308.06;5035789;28;20040;-65
2023/04/29 08:48:02;;;;;;;25.90;16.02;;;;;;;12.19;80.36;101305.53;5039965;28;20438;-65
2023/04/29 08:50:29;;;;;;;23.30;14.43;;;;;;;12.07;80.09;101308.19;5040578;28;20798;-64
2023/04/29 08:52:55;;;;;;;23.30;14.90;;;;;;;12.02;80.86;101317.72;5039632;28;20067;-64
2023/04/29 08:55:20;;;;;;;23.88;14.80;;;;;;;11.95;80.94;101316.88;5038282;28;20401;-64
2023/04/29 08:57:49;;;;;;;20.33;13.15;;;;;;;11.88;80.61;101318.63;5037084;28;20182;-65
2023/04/29 09:00:15;;;;;;;22.30;14.70;;;;;;;11.88;80.60;101320.38;5038444;28;20047;-64
2023/04/29 09:02:45;;;;;;;20.95;13.25;;;;;;;11.91;80.61;101322.94;5036990;28;20028;-65
2023/04/29 09:05:10;;;;;;;22.38;13.60;;;;;;;11.96;79.96;101318.59;5036228;28;20036;-64
2023/04/29 09:07:40;;;;;;;20.63;13.43;;;;;;;11.99;79.59;101321.16;5037908;28;20068;-64
2023/04/29 09:10:07;;;;;;;27.88;14.75;;;;;;;12.04;79.42;101313.38;5039362;28;20094;-64
2023/04/29 09:12:32;;;;;;;23.38;13.98;;;;;;;12.02;78.80;101313.38;5038255;28;20418;-64
2023/04/29 09:14:58;;;;;;;25.10;15.63;;;;;;;12.04;79.08;101323.75;5033971;28;20035;-64
2023/04/29 09:17:44;;;;;;;23.50;14.60;;;;;;;12.10;78.00;101319.41;5040625;28;20649;-65
2023/04/29 09:20:19;;;;;;;24.42;13.93;;;;;;;12.20;77.67;101320.19;5035904;28;20049;-64
2023/04/29 09:22:48;;;;;;;23.42;14.30;;;;;;;12.24;76.35;101314.97;5036715;28;20056;-64
2023/04/29 09:25:14;;;;;;;23.90;14.15;;;;;;;12.25;76.42;101318.44;5035280;28;20583;-64
2023/04/29 09:27:40;;;;;;;22.67;14.18;;;;;;;12.31;76.21;101326.19;5036444;28;20037;-64
2023/04/29 09:30:06;;;;;;;23.98;13.50;;;;;;;12.39;75.74;101314.00;5039229;28;20564;-64
2023/04/29 09:32:31;;;;;;;25.15;14.88;;;;;;;12.57;75.63;101319.06;5034526;28;20119;-63
2023/04/29 09:34:57;;;;;;;23.63;13.70;;;;;;;12.89;74.59;101298.91;5037896;28;20572;-63
2023/04/29 09:37:25;;;;;;;27.27;15.48;;;;;;;13.24;72.58;101280.41;5035291;28;20032;-64
2023/04/29 09:39:50;;;;;;;26.40;15.70;;;;;;;13.59;71.12;101272.22;5037375;28;20557;-65
2023/04/29 09:42:16;;;;;;;27.75;15.38;;;;;;;13.87;69.64;101264.91;5036058;28;20042;-69
2023/04/29 09:44:42;;;;;;;22.77;14.02;;;;;;;14.28;69.51;101264.28;5033650;28;20033;-69
2023/04/29 09:47:09;;;;;;;26.95;15.02;;;;;;;14.35;68.46;101269.38;5038412;28;20064;-69
2023/04/29 09:49:37;;;;;;;30.45;17.45;;;;;;;14.39;67.79;101263.28;5039451;28;20040;-69
2023/04/29 09:52:10;;;;;;;26.92;15.65;;;;;;;14.36;68.04;101272.84;5039633;28;20041;-70
2023/04/29 09:54:40;;;;;;;28.30;15.70;;;;;;;14.24;68.71;101289.50;5040227;28;20047;-69
2023/04/29 09:57:07;;;;;;;24.63;15.40;;;;;;;14.29;67.98;101277.28;5035158;28;20044;-69
2023/04/29 09:59:35;;;;;;;25.23;14.98;;;;;;;14.01;68.01;101291.53;5036995;28;20037;-70
2023/04/29 10:02:06;;;;;;;26.10;15.98;;;;;;;13.78;68.90;101299.66;5035461;28;20368;-69
2023/04/29 10:04:33;;;;;;;28.38;16.58;;;;;;;13.78;69.09;101314.38;5036206;28;20075;-70
2023/04/29 10:06:59;;;;;;;27.63;15.68;;;;;;;13.54;69.82;101329.41;5031999;28;20096;-69
2023/04/29 10:09:25;;;;;;;29.85;16.10;;;;;;;13.43;70.30;101340.78;5039760;28;20098;-70
2023/04/29 10:11:52;;;;;;;27.45;16.13;;;;;;;13.54;70.14;101329.41;5038808;28;20028;-70
2023/04/29 10:14:22;;;;;;;28.55;14.27;;;;;;;13.48;69.47;101326.88;5034853;28;20460;-69
2023/04/29 10:17:20;;;;;;;23.75;14.00;;;;;;;13.60;70.89;101362.22;5036272;28;20056;-70
2023/04/29 10:20:06;;;;;;;26.85;16.30;;;;;;;13.71;69.30;101328.34;5037888;28;20135;-69
2023/04/29 10:22:53;;;;;;;28.27;18.10;;;;;;;13.66;70.26;101351.78;5031815;28;20069;-70
2023/04/29 10:25:20;;;;;;;25.77;15.82;;;;;;;13.69;69.98;101346.53;5038703;28;20056;-70
2023/04/29 10:27:47;;;;;;;25.35;16.27;;;;;;;13.61;69.56;101338.00;5038376;28;20579;-69
2023/04/29 10:30:15;;;;;;;26.58;17.38;;;;;;;13.54;68.83;101334.59;5038891;28;20098;-69
2023/04/29 10:32:41;;;;;;;25.63;16.65;;;;;;;13.53;69.45;101350.22;5033786;28;20040;-69
2023/04/29 10:35:09;;;;;;;28.92;19.20;;;;;;;13.45;69.85;101349.41;5038673;28;20029;-69
2023/04/29 10:37:36;;;;;;;25.88;16.40;;;;;;;13.33;70.67;101368.56;5037472;28;20226;-70
2023/04/29 10:40:14;;;;;;;28.83;18.10;;;;;;;13.30;70.52;101367.75;5036085;28;20033;-70
2023/04/29 10:42:49;;;;;;;29.13;17.40;;;;;;;13.18;71.35;101376.50;5035598;28;20048;-70
2023/04/29 10:45:21;;;;;;;29.77;18.15;;;;;;;13.07;72.19;101385.28;5035079;28;20501;-68
2023/04/29 10:48:02;;;;;;;29.08;17.90;;;;;;;13.10;72.13;101380.06;5052915;28;20636;-68
2023/04/29 10:50:31;;;;;;;30.73;18.90;;;;;;;13.07;72.63;101390.47;5039254;28;20458;-68
2023/04/29 10:53:00;;;;;;;33.22;20.85;;;;;;;13.13;72.55;101391.28;5039700;28;20036;-68
2023/04/29 10:55:26;;;;;;;35.83;21.05;;;;;;;13.21;71.92;101379.09;5038361;28;20721;-68
2023/04/29 10:57:57;;;;;;;34.42;21.65;;;;;;;13.20;71.84;101371.31;5036659;28;20041;-68
2023/04/29 11:00:27;;;;;;;34.90;21.98;;;;;;;13.19;72.05;101390.34;5040115;28;20044;-68
2023/04/29 11:02:53;;;;;;;36.33;21.67;;;;;;;13.15;72.25;101388.69;5035630;28;20086;-68
2023/04/29 11:05:35;;;;;;;32.28;20.55;;;;;;;13.01;72.17;101391.38;5039372;28;20666;-62
2023/04/29 11:08:15;;;;;;;29.83;18.88;;;;;;;12.96;72.72;101404.38;5033824;28;20036;-63